Wind Star — C6CA9 — position and weather

sailwx.info

Track history (hours):
 
Tides and Currents Weather Stations Pressure Air Temp Water Temp Dewpoint Dewpoint Depression Visibility Wind Speed Wind Dir Waves Ship Positions

Wind Star

Operator: Holland America Line

Last reported at 2015-Jul-30 14:28 UTC. Time now 2015-Aug-01 03:32 UTC.
Position N 37°57' E 026°59'.

Length 134 m; draft 4.1 m.

Type: Ship. MMSI: 309163000.

Date/timePositionNaut miles runAvg speedWind from/ knotsBaromVisibWave heightAir tempDewpointWater temp
2015-Jul-30 14:28N 37°57' E 026°59'25 1.8
2015-Jul-30 00:07N 37°33' E 026°52'40 8.5
2015-Jul-29 19:26N 36°57' E 027°15'8 0.5
2015-Jul-29 03:33N 36°59' E 027°25'18 7.8
2015-Jul-29 01:17N 36°42' E 027°21'5 7.4
2015-Jul-29 00:33N 36°38' E 027°25'8 7.8
2015-Jul-28 23:33N 36°33' E 027°33'79 2.5
2015-Jul-27 16:31N 36°19' E 025°57'1010.4
2015-Jul-27 15:33N 36°20' E 025°44'1110.6
2015-Jul-27 14:33N 36°19' E 025°31'10 9.7
2015-Jul-27 13:34N 36°23' E 025°20'5 4.7
2015-Jul-27 12:33N 36°25' E 025°25'0 0.0
2015-Jul-27 11:29N 36°25' E 025°25'0 0.0
2015-Jul-27 10:32N 36°25' E 025°25'0 0.0
2015-Jul-27 09:32N 36°25' E 025°25'0 0.0
2015-Jul-27 08:33N 36°25' E 025°25'0 0.0
2015-Jul-27 07:33N 36°25' E 025°25'0 0.0
2015-Jul-27 06:33N 36°25' E 025°25'0 0.0
2015-Jul-27 05:32N 36°25' E 025°25'0 0.0
2015-Jul-27 04:32N 36°25' E 025°25'5 5.3
2015-Jul-27 03:33N 36°29' E 025°21'28 6.3
2015-Jul-26 23:13N 36°51' E 024°59'5 7.2
2015-Jul-26 22:30N 36°52' E 024°53'7 6.7
2015-Jul-26 21:27N 36°59' E 024°52'8 8.8
2015-Jul-26 20:33N 37°07' E 024°54'8 8.6
2015-Jul-26 19:34N 37°15' E 024°58'9 9.2
2015-Jul-26 18:34N 37°21' E 025°06'8 8.1
2015-Jul-26 17:33N 37°27' E 025°14'4 4.1
2015-Jul-26 16:29N 37°27' E 025°19'0 0.0
2015-Jul-26 15:32N 37°27' E 025°19'0 0.0
2015-Jul-26 14:32N 37°27' E 025°19'0 0.0
2015-Jul-26 13:32N 37°27' E 025°19'0 0.0
2015-Jul-26 12:29N 37°27' E 025°19'0 0.0
2015-Jul-26 11:32N 37°27' E 025°19'0 0.0
2015-Jul-26 10:32N 37°27' E 025°19'0 0.0
2015-Jul-26 09:32N 37°27' E 025°19'0 0.0
2015-Jul-26 08:32N 37°27' E 025°19'0 0.0
2015-Jul-26 07:32N 37°27' E 025°19'0 0.0
2015-Jul-26 06:32N 37°27' E 025°19'0 0.1
2015-Jul-26 05:32N 37°27' E 025°19'0 0.0
2015-Jul-26 04:32N 37°27' E 025°19'2 2.5
2015-Jul-26 03:33N 37°28' E 025°16'6 5.9
2015-Jul-26 02:33N 37°29' E 025°09'6 5.8
2015-Jul-26 01:33N 37°30' E 025°02'7 6.6
2015-Jul-26 00:32N 37°32' E 024°54'6 6.4
2015-Jul-25 23:33N 37°31' E 024°46'37 7.1
2015-Jul-25 18:23N 37°39' E 024°01'5 6.4
2015-Jul-25 17:33N 37°38' E 023°54'8 8.2
2015-Jul-25 16:33N 37°39' E 023°44'9 9.0
2015-Jul-25 15:33N 37°47' E 023°38'9 9.1
2015-Jul-25 14:33N 37°56' E 023°37'1 1.0
2015-Jul-25 13:33N 37°56' E 023°38'0 0.0
2015-Jul-25 12:33N 37°56' E 023°38'0 0.0
2015-Jul-25 11:33N 37°56' E 023°38'0 0.0
2015-Jul-25 10:33N 37°56' E 023°38'0 0.0
2015-Jul-25 09:33N 37°56' E 023°38'0 0.0
2015-Jul-25 08:33N 37°56' E 023°38'0 0.0
2015-Jul-25 07:33N 37°56' E 023°38'0 0.0
2015-Jul-25 06:33N 37°56' E 023°38'0 0.0
2015-Jul-25 05:33N 37°56' E 023°38'0 0.0
2015-Jul-25 04:33N 37°56' E 023°38'0 0.0
2015-Jul-25 03:33N 37°56' E 023°38'0 0.0
2015-Jul-25 02:33N 37°56' E 023°38'0 0.0
2015-Jul-25 01:33N 37°56' E 023°38'0 0.0
2015-Jul-25 00:33N 37°56' E 023°38'0 0.0
2015-Jul-24 23:33N 37°56' E 023°38'0 0.0
2015-Jul-24 22:33N 37°56' E 023°38'0 0.0
2015-Jul-24 21:33N 37°56' E 023°38'0 0.0
2015-Jul-24 20:33N 37°56' E 023°38'0 0.0
2015-Jul-24 19:33N 37°56' E 023°38'0 0.0
2015-Jul-24 18:33N 37°56' E 023°38'0 0.0
2015-Jul-24 17:33N 37°56' E 023°38'0 0.0
2015-Jul-24 16:33N 37°56' E 023°38'0 0.1
2015-Jul-24 15:34N 37°56' E 023°38'2 2.4
2015-Jul-24 14:33N 37°54' E 023°36'9 8.8
2015-Jul-24 13:34N 37°47' E 023°42'1010.3
2015-Jul-24 12:34N 37°38' E 023°49'4410.3
2015-Jul-24 08:16N 37°31' E 024°44'910.7
2015-Jul-24 07:26N 37°32' E 024°55'8 9.5
2015-Jul-24 06:34N 37°31' E 025°05'9 9.2
2015-Jul-24 05:34N 37°31' E 025°17'10 9.5
2015-Jul-24 04:31N 37°34' E 025°29'9 9.2
2015-Jul-24 03:33N 37°37' E 025°40'  
Track history (hours):
 
Tides and Currents Weather Stations Pressure Air Temp Water Temp Dewpoint Dewpoint Depression Visibility Wind Speed Wind Dir Waves Ship Positions

Wind Star

Operator: Holland America Line

Last reported at 2015-Jul-30 14:28 UTC. Time now 2015-Aug-01 03:32 UTC.
Position N 37°57' E 026°59'.

Length 134 m; draft 4.1 m.

Type: Ship. MMSI: 309163000.

Date/timePositionNaut miles runAvg speedWind from/ knotsBaromVisibWave heightAir tempDewpointWater temp
2015-Jul-30 14:28N 37°57' E 026°59'25 1.8
2015-Jul-30 00:07N 37°33' E 026°52'40 8.5
2015-Jul-29 19:26N 36°57' E 027°15'8 0.5
2015-Jul-29 03:33N 36°59' E 027°25'18 7.8
2015-Jul-29 01:17N 36°42' E 027°21'5 7.4
2015-Jul-29 00:33N 36°38' E 027°25'8 7.8
2015-Jul-28 23:33N 36°33' E 027°33'79 2.5
2015-Jul-27 16:31N 36°19' E 025°57'1010.4
2015-Jul-27 15:33N 36°20' E 025°44'1110.6
2015-Jul-27 14:33N 36°19' E 025°31'10 9.7
2015-Jul-27 13:34N 36°23' E 025°20'5 4.7
2015-Jul-27 12:33N 36°25' E 025°25'0 0.0
2015-Jul-27 11:29N 36°25' E 025°25'0 0.0
2015-Jul-27 10:32N 36°25' E 025°25'0 0.0
2015-Jul-27 09:32N 36°25' E 025°25'0 0.0
2015-Jul-27 08:33N 36°25' E 025°25'0 0.0
2015-Jul-27 07:33N 36°25' E 025°25'0 0.0
2015-Jul-27 06:33N 36°25' E 025°25'0 0.0
2015-Jul-27 05:32N 36°25' E 025°25'0 0.0
2015-Jul-27 04:32N 36°25' E 025°25'5 5.3
2015-Jul-27 03:33N 36°29' E 025°21'28 6.3
2015-Jul-26 23:13N 36°51' E 024°59'5 7.2
2015-Jul-26 22:30N 36°52' E 024°53'7 6.7
2015-Jul-26 21:27N 36°59' E 024°52'8 8.8
2015-Jul-26 20:33N 37°07' E 024°54'8 8.6
2015-Jul-26 19:34N 37°15' E 024°58'9 9.2
2015-Jul-26 18:34N 37°21' E 025°06'8 8.1
2015-Jul-26 17:33N 37°27' E 025°14'4 4.1
2015-Jul-26 16:29N 37°27' E 025°19'0 0.0
2015-Jul-26 15:32N 37°27' E 025°19'0 0.0
2015-Jul-26 14:32N 37°27' E 025°19'0 0.0
2015-Jul-26 13:32N 37°27' E 025°19'0 0.0
2015-Jul-26 12:29N 37°27' E 025°19'0 0.0
2015-Jul-26 11:32N 37°27' E 025°19'0 0.0
2015-Jul-26 10:32N 37°27' E 025°19'0 0.0
2015-Jul-26 09:32N 37°27' E 025°19'0 0.0
2015-Jul-26 08:32N 37°27' E 025°19'0 0.0
2015-Jul-26 07:32N 37°27' E 025°19'0 0.0
2015-Jul-26 06:32N 37°27' E 025°19'0 0.1
2015-Jul-26 05:32N 37°27' E 025°19'0 0.0
2015-Jul-26 04:32N 37°27' E 025°19'2 2.5
2015-Jul-26 03:33N 37°28' E 025°16'6 5.9
2015-Jul-26 02:33N 37°29' E 025°09'6 5.8
2015-Jul-26 01:33N 37°30' E 025°02'7 6.6
2015-Jul-26 00:32N 37°32' E 024°54'6 6.4
2015-Jul-25 23:33N 37°31' E 024°46'37 7.1
2015-Jul-25 18:23N 37°39' E 024°01'5 6.4
2015-Jul-25 17:33N 37°38' E 023°54'8 8.2
2015-Jul-25 16:33N 37°39' E 023°44'9 9.0
2015-Jul-25 15:33N 37°47' E 023°38'9 9.1
2015-Jul-25 14:33N 37°56' E 023°37'1 1.0
2015-Jul-25 13:33N 37°56' E 023°38'0 0.0
2015-Jul-25 12:33N 37°56' E 023°38'0 0.0
2015-Jul-25 11:33N 37°56' E 023°38'0 0.0
2015-Jul-25 10:33N 37°56' E 023°38'0 0.0
2015-Jul-25 09:33N 37°56' E 023°38'0 0.0
2015-Jul-25 08:33N 37°56' E 023°38'0 0.0
2015-Jul-25 07:33N 37°56' E 023°38'0 0.0
2015-Jul-25 06:33N 37°56' E 023°38'0 0.0
2015-Jul-25 05:33N 37°56' E 023°38'0 0.0
2015-Jul-25 04:33N 37°56' E 023°38'0 0.0
2015-Jul-25 03:33N 37°56' E 023°38'0 0.0
2015-Jul-25 02:33N 37°56' E 023°38'0 0.0
2015-Jul-25 01:33N 37°56' E 023°38'0 0.0
2015-Jul-25 00:33N 37°56' E 023°38'0 0.0
2015-Jul-24 23:33N 37°56' E 023°38'0 0.0
2015-Jul-24 22:33N 37°56' E 023°38'0 0.0
2015-Jul-24 21:33N 37°56' E 023°38'0 0.0
2015-Jul-24 20:33N 37°56' E 023°38'0 0.0
2015-Jul-24 19:33N 37°56' E 023°38'0 0.0
2015-Jul-24 18:33N 37°56' E 023°38'0 0.0
2015-Jul-24 17:33N 37°56' E 023°38'0 0.0
2015-Jul-24 16:33N 37°56' E 023°38'0 0.1
2015-Jul-24 15:34N 37°56' E 023°38'2 2.4
2015-Jul-24 14:33N 37°54' E 023°36'9 8.8
2015-Jul-24 13:34N 37°47' E 023°42'1010.3
2015-Jul-24 12:34N 37°38' E 023°49'4410.3
2015-Jul-24 08:16N 37°31' E 024°44'910.7
2015-Jul-24 07:26N 37°32' E 024°55'8 9.5
2015-Jul-24 06:34N 37°31' E 025°05'9 9.2
2015-Jul-24 05:34N 37°31' E 025°17'10 9.5
2015-Jul-24 04:31N 37°34' E 025°29'9 9.2
2015-Jul-24 03:33N 37°37' E 025°40'  

Dump ship's entire track history